Time;durP1;ratioP1;P1;durP2;ratioP2;P2;SDS_P1;SDS_P2;PMS_P1;PMS_P2;Temp;Humidity;BMP_temperature;BMP_pressure;BME280_temperature;BME280_humidity;BME280_pressure;Samples;Min_cycle;Max_cycle;Signal;HPM_P1;HPM_P2
2023/08/14 00:00:07;;;;;;;0.10;0.10;;;;;;;18.58;100.00;99148.75;5091760;28;20214;-54
2023/08/14 00:03:01;;;;;;;0.10;0.10;;;;;;;18.50;100.00;99159.38;5092541;28;20290;-55
2023/08/14 00:05:48;;;;;;;0.10;0.10;;;;;;;18.47;100.00;99157.00;5092617;28;20241;-54
2023/08/14 00:08:35;;;;;;;0.10;0.10;;;;;;;18.42;100.00;99159.28;5091462;28;20203;-55
2023/08/14 00:11:21;;;;;;;0.10;0.10;;;;;;;18.40;100.00;99167.47;5092641;28;20691;-55
2023/08/14 00:14:08;;;;;;;0.10;0.10;;;;;;;18.48;100.00;99170.25;5092528;28;20198;-54
2023/08/14 00:16:55;;;;;;;0.10;0.10;;;;;;;18.27;100.00;99169.66;5092664;28;20197;-54
2023/08/14 00:19:43;;;;;;;0.10;0.10;;;;;;;18.25;100.00;99161.75;5092427;28;20218;-55
2023/08/14 00:22:30;;;;;;;0.10;0.10;;;;;;;18.25;100.00;99159.06;5091092;28;20276;-55
2023/08/14 00:25:17;;;;;;;0.10;0.10;;;;;;;18.15;100.00;99169.00;5092559;28;20199;-54
2023/08/14 00:28:05;;;;;;;0.10;0.10;;;;;;;18.21;100.00;99167.53;5092791;28;20269;-54
2023/08/14 00:30:52;;;;;;;0.10;0.10;;;;;;;18.29;100.00;99173.03;5091719;28;20191;-55
2023/08/14 00:33:39;;;;;;;0.10;0.10;;;;;;;18.27;100.00;99172.34;5092617;28;20286;-54
2023/08/14 00:36:27;;;;;;;0.10;0.10;;;;;;;18.28;100.00;99164.13;5092472;28;20285;-54
2023/08/14 00:39:14;;;;;;;0.10;0.10;;;;;;;18.16;100.00;99173.38;5091012;28;20292;-54
2023/08/14 00:42:01;;;;;;;0.10;0.10;;;;;;;18.07;100.00;99168.88;5092375;28;20199;-54
2023/08/14 00:44:48;;;;;;;0.07;0.07;;;;;;;18.03;100.00;99168.28;5092442;28;20191;-54
2023/08/14 00:47:36;;;;;;;0.10;0.10;;;;;;;18.15;100.00;99162.78;5091122;28;20202;-54
2023/08/14 00:50:23;;;;;;;0.10;0.10;;;;;;;18.08;100.00;99159.00;5092451;28;20237;-54
2023/08/14 00:53:14;;;;;;;0.10;0.10;;;;;;;18.01;100.00;99162.25;5091235;28;20686;-55
2023/08/14 00:56:02;;;;;;;0.10;0.10;;;;;;;18.16;100.00;99162.63;5092245;28;20209;-54
2023/08/14 00:58:49;;;;;;;0.10;0.10;;;;;;;17.98;100.00;99153.66;5092176;28;20689;-54
2023/08/14 01:01:36;;;;;;;0.10;0.10;;;;;;;18.02;100.00;99155.03;5091261;28;20202;-55
2023/08/14 01:04:23;;;;;;;0.10;0.10;;;;;;;17.81;100.00;99168.63;5091092;28;20194;-54
2023/08/14 01:07:10;;;;;;;0.10;0.10;;;;;;;17.69;100.00;99167.97;5092382;28;20233;-54
2023/08/14 01:09:59;;;;;;;0.10;0.10;;;;;;;17.64;100.00;99178.22;5092077;28;20711;-54
2023/08/14 01:12:53;;;;;;;0.10;0.10;;;;;;;17.69;100.00;99184.03;5094812;28;20199;-54
2023/08/14 01:15:44;;;;;;;0.10;0.10;;;;;;;17.71;100.00;99173.16;5095837;28;20206;-54
2023/08/14 01:18:34;;;;;;;0.10;0.10;;;;;;;17.83;100.00;99176.53;5095694;28;20695;-54
2023/08/14 01:21:37;;;;;;;0.10;0.10;;;;;;;17.73;100.00;99174.72;5095352;28;20338;-54
2023/08/14 01:24:33;;;;;;;0.10;0.10;;;;;;;17.81;100.00;99174.00;5093272;28;20190;-54
2023/08/14 01:27:23;;;;;;;0.10;0.10;;;;;;;17.83;100.00;99169.34;5095442;28;20202;-54
2023/08/14 01:30:11;;;;;;;0.10;0.10;;;;;;;17.72;100.00;99162.31;5094548;28;20231;-55
2023/08/14 01:32:58;;;;;;;0.20;0.20;;;;;;;17.76;100.00;99160.22;5095457;28;20244;-54
2023/08/14 01:35:51;;;;;;;0.10;0.10;;;;;;;17.70;100.00;99163.44;5095263;28;20214;-54
2023/08/14 01:38:47;;;;;;;0.10;0.10;;;;;;;17.84;100.00;99154.09;5093038;28;20195;-54
2023/08/14 01:41:40;;;;;;;0.10;0.10;;;;;;;17.68;100.00;99158.22;5094950;28;20288;-54
2023/08/14 01:44:29;;;;;;;0.10;0.10;;;;;;;17.65;100.00;99163.81;5095195;28;20205;-54
2023/08/14 01:47:17;;;;;;;0.10;0.10;;;;;;;17.69;100.00;99164.41;5095244;28;20702;-54
2023/08/14 01:50:05;;;;;;;0.10;0.10;;;;;;;17.53;100.00;99158.78;5095026;28;20326;-54
2023/08/14 01:52:51;;;;;;;0.10;0.10;;;;;;;17.53;100.00;99159.63;5093818;28;20191;-54
2023/08/14 01:55:38;;;;;;;0.10;0.10;;;;;;;17.41;100.00;99156.25;5095088;28;20269;-54
2023/08/14 01:58:25;;;;;;;0.10;0.10;;;;;;;17.39;100.00;99152.03;5093909;28;20265;-54
2023/08/14 02:01:13;;;;;;;0.10;0.10;;;;;;;17.52;100.00;99152.56;5093737;28;20210;-54
2023/08/14 02:04:00;;;;;;;0.10;0.10;;;;;;;17.66;100.00;99138.75;5094799;28;20253;-55
2023/08/14 02:06:47;;;;;;;0.10;0.10;;;;;;;17.52;100.00;99139.19;5093920;28;20206;-54
2023/08/14 02:09:34;;;;;;;0.10;0.10;;;;;;;17.36;100.00;99146.94;5093599;28;20240;-54
2023/08/14 02:12:21;;;;;;;0.10;0.10;;;;;;;17.60;100.00;99136.63;5093608;28;20194;-54
2023/08/14 02:15:09;;;;;;;0.10;0.10;;;;;;;17.40;100.00;99137.66;5094532;28;20194;-54
2023/08/14 02:17:57;;;;;;;0.10;0.10;;;;;;;17.36;100.00;99141.59;5094650;28;20195;-55
2023/08/14 02:20:49;;;;;;;0.10;0.10;;;;;;;17.44;100.00;99137.22;5094409;28;20214;-54
2023/08/14 02:23:36;;;;;;;0.10;0.10;;;;;;;17.53;100.00;99132.84;5092102;28;20191;-54
2023/08/14 02:26:23;;;;;;;0.00;0.00;;;;;;;17.17;100.00;99132.56;5094456;28;20217;-54
2023/08/14 02:29:10;;;;;;;0.10;0.10;;;;;;;17.01;100.00;99134.97;5094438;28;20198;-54
2023/08/14 02:31:57;;;;;;;0.10;0.10;;;;;;;17.05;100.00;99140.88;5094091;28;20249;-54
2023/08/14 02:34:47;;;;;;;0.10;0.10;;;;;;;17.31;100.00;99133.16;5093266;28;20222;-54
2023/08/14 02:37:34;;;;;;;0.10;0.10;;;;;;;17.19;100.00;99129.78;5092617;28;20235;-54
2023/08/14 02:40:21;;;;;;;0.10;0.10;;;;;;;16.96;100.00;99131.84;5093766;28;20210;-54
2023/08/14 02:43:07;;;;;;;0.10;0.10;;;;;;;16.95;100.00;99124.81;5094116;28;20515;-54
2023/08/14 02:45:54;;;;;;;0.10;0.10;;;;;;;17.12;100.00;99125.97;5093017;28;20194;-55
2023/08/14 02:48:41;;;;;;;0.10;0.10;;;;;;;17.04;100.00;99118.63;5093826;28;20191;-54
2023/08/14 02:51:30;;;;;;;0.10;0.10;;;;;;;17.04;100.00;99128.47;5094086;28;20311;-54
2023/08/14 02:54:16;;;;;;;0.10;0.10;;;;;;;16.94;100.00;99127.63;5092589;28;20217;-54
2023/08/14 02:57:03;;;;;;;0.10;0.10;;;;;;;16.76;100.00;99124.78;5093687;28;20191;-54
2023/08/14 02:59:50;;;;;;;0.10;0.10;;;;;;;16.74;100.00;99134.78;5093803;28;20210;-54
2023/08/14 03:02:37;;;;;;;0.10;0.10;;;;;;;16.62;100.00;99128.69;5092641;28;20194;-54
2023/08/14 03:05:24;;;;;;;0.10;0.10;;;;;;;16.76;100.00;99132.81;5093395;28;20206;-54
2023/08/14 03:08:12;;;;;;;0.10;0.10;;;;;;;16.78;100.00;99115.63;5092378;28;20209;-54
2023/08/14 03:10:59;;;;;;;0.10;0.10;;;;;;;16.93;100.00;99113.41;5092470;28;20286;-54
2023/08/14 03:13:45;;;;;;;0.10;0.10;;;;;;;17.07;100.00;99120.16;5093411;28;20202;-54
2023/08/14 03:16:33;;;;;;;0.10;0.10;;;;;;;17.08;100.00;99119.19;5092334;28;20198;-54
2023/08/14 03:19:19;;;;;;;0.00;0.00;;;;;;;17.06;100.00;99124.66;5093504;28;20277;-54
2023/08/14 03:22:06;;;;;;;0.10;0.10;;;;;;;16.74;100.00;99116.06;5093021;28;20218;-54
2023/08/14 03:24:55;;;;;;;0.10;0.10;;;;;;;16.62;100.00;99117.13;5093349;28;20261;-54
2023/08/14 03:27:42;;;;;;;0.10;0.10;;;;;;;16.69;100.00;99118.28;5093339;28;20203;-54
2023/08/14 03:30:29;;;;;;;0.20;0.20;;;;;;;16.70;100.00;99114.66;5092032;28;20187;-55
2023/08/14 03:33:16;;;;;;;0.10;0.10;;;;;;;16.93;100.00;99117.91;5093240;28;20194;-54
2023/08/14 03:36:04;;;;;;;0.10;0.10;;;;;;;16.85;100.00;99118.59;5091637;28;20242;-54
2023/08/14 03:38:52;;;;;;;0.10;0.10;;;;;;;16.68;100.00;99125.47;5090774;28;20210;-54
2023/08/14 03:41:40;;;;;;;0.10;0.10;;;;;;;16.52;100.00;99122.47;5092128;28;20737;-54
2023/08/14 03:44:27;;;;;;;0.10;0.10;;;;;;;16.44;100.00;99122.28;5092070;28;20602;-54
2023/08/14 03:47:13;;;;;;;0.10;0.10;;;;;;;16.49;100.00;99118.22;5091735;28;20215;-54
2023/08/14 03:50:00;;;;;;;0.10;0.10;;;;;;;16.58;100.00;99116.53;5092952;28;20194;-54
2023/08/14 03:52:48;;;;;;;0.10;0.10;;;;;;;16.63;100.00;99118.81;5091601;28;20232;-54
2023/08/14 03:55:36;;;;;;;0.10;0.10;;;;;;;16.80;100.00;99119.03;5092026;28;20264;-54
2023/08/14 03:58:24;;;;;;;0.10;0.10;;;;;;;16.57;100.00;99115.69;5093030;28;20210;-54
2023/08/14 04:01:11;;;;;;;0.10;0.10;;;;;;;16.50;100.00;99108.34;5091611;28;20272;-54
2023/08/14 04:03:58;;;;;;;0.10;0.10;;;;;;;16.68;100.00;99098.72;5091623;28;20198;-54
2023/08/14 04:06:47;;;;;;;0.10;0.10;;;;;;;16.79;100.00;99093.28;5091597;28;20681;-54
2023/08/14 04:09:34;;;;;;;0.10;0.10;;;;;;;16.75;100.00;99085.66;5090797;28;20194;-54
2023/08/14 04:12:21;;;;;;;0.10;0.10;;;;;;;16.82;100.00;99097.50;5091779;28;20261;-54
2023/08/14 04:15:16;;;;;;;0.10;0.10;;;;;;;16.93;100.00;99094.69;5092526;28;20203;-54
2023/08/14 04:18:04;;;;;;;0.10;0.10;;;;;;;16.87;100.00;99093.41;5092747;28;20194;-55
2023/08/14 04:20:51;;;;;;;0.10;0.10;;;;;;;16.78;100.00;99083.53;5092563;28;20206;-54
2023/08/14 04:23:38;;;;;;;0.10;0.10;;;;;;;16.83;100.00;99083.13;5091336;28;20224;-54
2023/08/14 04:26:25;;;;;;;0.10;0.10;;;;;;;16.86;100.00;99086.34;5092841;28;20572;-54
2023/08/14 04:29:12;;;;;;;0.10;0.10;;;;;;;16.94;100.00;99085.66;5092854;28;20253;-55
2023/08/14 04:32:00;;;;;;;0.10;0.10;;;;;;;17.33;100.00;99094.53;5092455;28;20274;-55
2023/08/14 04:34:47;;;;;;;0.10;0.10;;;;;;;17.35;100.00;99100.56;5091356;28;20706;-54
2023/08/14 04:37:33;;;;;;;0.10;0.10;;;;;;;17.29;100.00;99101.16;5089812;28;20762;-54
2023/08/14 04:40:22;;;;;;;0.10;0.10;;;;;;;17.48;100.00;99102.97;5091159;28;20198;-54
2023/08/14 04:43:08;;;;;;;0.10;0.10;;;;;;;17.46;100.00;99102.25;5091334;28;20194;-54
2023/08/14 04:45:55;;;;;;;0.10;0.10;;;;;;;17.35;100.00;99097.91;5092270;28;20199;-54
2023/08/14 04:48:44;;;;;;;0.10;0.10;;;;;;;17.45;100.00;99084.50;5094899;28;20190;-54
2023/08/14 04:51:31;;;;;;;0.10;0.10;;;;;;;17.59;100.00;99100.13;5095291;28;20191;-54
2023/08/14 04:54:18;;;;;;;0.10;0.10;;;;;;;17.81;100.00;99100.81;5093966;28;20268;-54
2023/08/14 04:57:05;;;;;;;0.10;0.10;;;;;;;17.90;100.00;99100.78;5095183;28;20732;-54
2023/08/14 04:59:52;;;;;;;0.10;0.10;;;;;;;17.85;100.00;99086.13;5094688;28;20187;-54
2023/08/14 05:02:40;;;;;;;0.10;0.10;;;;;;;17.88;100.00;99080.50;5094810;28;20222;-54
2023/08/14 05:05:28;;;;;;;0.10;0.10;;;;;;;17.99;100.00;99082.97;5095033;28;20198;-54
2023/08/14 05:08:15;;;;;;;0.10;0.10;;;;;;;18.16;100.00;99078.69;5094692;28;20301;-54
2023/08/14 05:11:02;;;;;;;0.10;0.10;;;;;;;17.89;100.00;99080.34;5095896;28;20547;-54
2023/08/14 05:13:49;;;;;;;0.10;0.10;;;;;;;18.07;100.00;99074.22;5094947;28;20199;-55
2023/08/14 05:16:36;;;;;;;0.10;0.10;;;;;;;18.07;100.00;99077.72;5094726;28;20198;-55
2023/08/14 05:19:23;;;;;;;0.10;0.10;;;;;;;18.13;100.00;99079.81;5094662;28;20199;-54
2023/08/14 05:22:12;;;;;;;0.00;0.00;;;;;;;18.19;100.00;99068.50;5093972;28;20214;-55
2023/08/14 05:25:00;;;;;;;0.10;0.10;;;;;;;18.25;100.00;99077.78;5095477;28;20195;-55
2023/08/14 05:27:46;;;;;;;0.10;0.10;;;;;;;18.25;100.00;99075.13;5095467;28;20209;-54
2023/08/14 05:30:36;;;;;;;0.10;0.10;;;;;;;18.40;100.00;99083.50;5095338;28;20241;-54
2023/08/14 05:33:23;;;;;;;0.10;0.10;;;;;;;18.45;100.00;99090.09;5095483;28;20309;-55
2023/08/14 05:36:10;;;;;;;0.10;0.10;;;;;;;18.60;100.00;99082.38;5094333;28;20256;-54
2023/08/14 05:38:58;;;;;;;0.10;0.10;;;;;;;18.52;100.00;99083.13;5094420;28;20198;-54
2023/08/14 05:41:45;;;;;;;0.10;0.10;;;;;;;18.65;100.00;99076.59;5095084;28;20233;-54
2023/08/14 05:44:31;;;;;;;0.10;0.10;;;;;;;18.70;100.00;99079.66;5095181;28;20683;-54
2023/08/14 05:47:18;;;;;;;0.10;0.10;;;;;;;18.94;100.00;99084.44;5095275;28;20203;-54
2023/08/14 05:50:06;;;;;;;0.10;0.10;;;;;;;18.91;100.00;99066.78;5094986;28;20194;-54
2023/08/14 05:52:54;;;;;;;0.10;0.10;;;;;;;18.85;100.00;99076.31;5092782;28;20183;-55
2023/08/14 05:55:42;;;;;;;0.10;0.10;;;;;;;18.95;100.00;99070.88;5095059;28;20195;-55
2023/08/14 05:58:29;;;;;;;0.10;0.10;;;;;;;18.91;100.00;99079.34;5094621;28;20333;-55
2023/08/14 06:01:16;;;;;;;0.07;0.07;;;;;;;19.08;100.00;99083.88;5095009;28;20206;-55
2023/08/14 06:04:04;;;;;;;0.10;0.10;;;;;;;19.04;100.00;99090.56;5094850;28;20671;-55
2023/08/14 06:06:50;;;;;;;0.10;0.10;;;;;;;19.12;100.00;99083.44;5094568;28;20195;-55
2023/08/14 06:09:37;;;;;;;0.10;0.10;;;;;;;19.04;100.00;99079.84;5094521;28;20199;-55
2023/08/14 06:12:25;;;;;;;0.10;0.10;;;;;;;19.12;100.00;99091.50;5094708;28;20239;-55
2023/08/14 06:15:12;;;;;;;0.10;0.10;;;;;;;19.15;100.00;99090.34;5094411;28;20198;-55
2023/08/14 06:17:59;;;;;;;0.10;0.10;;;;;;;19.34;100.00;99092.00;5094597;28;20305;-54
2023/08/14 06:20:46;;;;;;;0.10;0.10;;;;;;;19.51;100.00;99085.78;5094719;28;20194;-55
2023/08/14 06:23:33;;;;;;;0.10;0.10;;;;;;;19.69;100.00;99096.50;5091997;28;20219;-55
2023/08/14 06:26:21;;;;;;;0.10;0.10;;;;;;;19.86;100.00;99084.84;5094474;28;20202;-55
2023/08/14 06:29:09;;;;;;;0.10;0.10;;;;;;;20.01;100.00;99082.41;5094339;28;20194;-54
2023/08/14 06:31:56;;;;;;;0.10;0.10;;;;;;;20.27;100.00;99082.38;5094064;28;20190;-55
2023/08/14 06:34:43;;;;;;;0.10;0.10;;;;;;;20.31;100.00;99075.66;5094195;28;20199;-55
2023/08/14 06:37:30;;;;;;;0.10;0.10;;;;;;;20.44;100.00;99065.31;5092513;28;20239;-55
2023/08/14 06:40:17;;;;;;;0.10;0.10;;;;;;;20.38;100.00;99065.09;5094169;28;20191;-55
2023/08/14 06:43:06;;;;;;;0.10;0.10;;;;;;;20.55;100.00;99066.84;5094036;28;20374;-55
2023/08/14 06:45:54;;;;;;;0.10;0.10;;;;;;;20.61;100.00;99062.66;5094104;28;20202;-55
2023/08/14 06:48:41;;;;;;;0.10;0.10;;;;;;;20.26;100.00;99062.69;5093909;28;20237;-55
2023/08/14 06:51:28;;;;;;;0.10;0.10;;;;;;;20.37;100.00;99050.81;5094088;28;20219;-55
2023/08/14 06:54:15;;;;;;;0.10;0.10;;;;;;;20.53;100.00;99053.56;5092580;28;20306;-55
2023/08/14 06:57:02;;;;;;;0.10;0.10;;;;;;;20.46;100.00;99046.28;5093594;28;20237;-55
2023/08/14 06:59:49;;;;;;;0.10;0.10;;;;;;;20.70;100.00;99037.44;5094045;28;20198;-55
2023/08/14 07:02:37;;;;;;;0.10;0.10;;;;;;;21.03;100.00;99023.00;5093611;28;20222;-55
2023/08/14 07:05:25;;;;;;;0.10;0.10;;;;;;;21.30;100.00;99018.31;5093405;28;20242;-55
2023/08/14 07:08:11;;;;;;;0.10;0.10;;;;;;;21.87;100.00;99021.72;5092360;28;20191;-55
2023/08/14 07:10:59;;;;;;;0.10;0.10;;;;;;;21.78;100.00;99024.63;5093274;28;20203;-55
2023/08/14 07:13:45;;;;;;;0.10;0.10;;;;;;;21.80;100.00;99020.72;5093285;28;20195;-55
2023/08/14 07:16:32;;;;;;;0.10;0.10;;;;;;;22.03;100.00;99014.59;5093529;28;20729;-55
2023/08/14 07:19:20;;;;;;;0.10;0.10;;;;;;;21.94;100.00;99020.03;5093568;28;20199;-55
2023/08/14 07:22:07;;;;;;;0.10;0.10;;;;;;;22.17;100.00;99021.97;5092647;28;20245;-55
2023/08/14 07:24:54;;;;;;;0.10;0.10;;;;;;;22.43;100.00;99029.78;5093441;28;20198;-55
2023/08/14 07:27:41;;;;;;;0.10;0.10;;;;;;;22.53;100.00;99033.94;5093348;28;20191;-55
2023/08/14 07:30:28;;;;;;;0.10;0.10;;;;;;;22.53;100.00;99033.94;5093062;28;20194;-55
2023/08/14 07:33:15;;;;;;;0.10;0.10;;;;;;;22.78;100.00;99014.91;5093251;28;20190;-55
2023/08/14 07:36:04;;;;;;;0.10;0.10;;;;;;;22.87;100.00;99012.97;5092943;28;20223;-55
2023/08/14 07:38:51;;;;;;;0.00;0.00;;;;;;;23.12;100.00;99007.22;5090750;28;20211;-55
2023/08/14 07:41:38;;;;;;;0.10;0.10;;;;;;;23.41;100.00;99009.13;5091953;28;20262;-55
2023/08/14 07:44:25;;;;;;;0.00;0.00;;;;;;;23.62;100.00;99008.44;5092646;28;20292;-55
2023/08/14 07:47:12;;;;;;;0.10;0.10;;;;;;;23.57;100.00;98994.63;5092955;28;20206;-55
2023/08/14 07:49:59;;;;;;;0.10;0.10;;;;;;;23.70;100.00;98996.69;5092686;28;20238;-55
2023/08/14 07:52:47;;;;;;;0.10;0.10;;;;;;;24.16;100.00;99000.03;5091644;28;20198;-55
2023/08/14 07:55:34;;;;;;;0.10;0.10;;;;;;;24.42;100.00;98982.47;5092666;28;20241;-55
2023/08/14 07:58:21;;;;;;;0.10;0.10;;;;;;;24.60;100.00;98974.72;5092684;28;20233;-55
2023/08/14 08:01:08;;;;;;;0.10;0.10;;;;;;;24.45;100.00;98974.78;5092522;28;20202;-55
2023/08/14 08:03:55;;;;;;;0.10;0.10;;;;;;;24.89;100.00;98968.34;5092434;28;20213;-55
2023/08/14 08:06:42;;;;;;;0.00;0.00;;;;;;;24.52;100.00;98973.00;5092756;28;20205;-55
2023/08/14 08:09:32;;;;;;;0.10;0.10;;;;;;;25.03;100.00;98969.34;5091853;28;20213;-55
2023/08/14 08:12:18;;;;;;;0.10;0.10;;;;;;;25.80;100.00;98968.44;5092673;28;20237;-55
2023/08/14 08:15:06;;;;;;;0.10;0.10;;;;;;;25.79;100.00;98964.06;5092649;28;20191;-55
2023/08/14 08:17:53;;;;;;;0.10;0.10;;;;;;;25.83;100.00;98968.03;5092692;28;20306;-56
2023/08/14 08:20:40;;;;;;;0.00;0.00;;;;;;;25.89;100.00;98976.22;5091541;28;20194;-55
2023/08/14 08:23:27;;;;;;;0.00;0.00;;;;;;;25.58;100.00;98984.78;5095413;28;20692;-56
2023/08/14 08:26:16;;;;;;;0.10;0.10;;;;;;;25.31;100.00;98989.19;5096695;28;20206;-55
2023/08/14 08:29:03;;;;;;;0.00;0.00;;;;;;;25.76;100.00;98997.84;5096677;28;20685;-55
2023/08/14 08:31:50;;;;;;;0.10;0.10;;;;;;;26.07;100.00;99010.16;5096629;28;20194;-55
2023/08/14 08:34:37;;;;;;;0.03;0.03;;;;;;;26.13;100.00;99007.44;5096541;28;20310;-55
2023/08/14 08:37:23;;;;;;;0.00;0.00;;;;;;;26.36;100.00;99011.72;5094995;28;21083;-55
2023/08/14 08:40:11;;;;;;;0.00;0.00;;;;;;;26.42;100.00;99006.34;5096475;28;20194;-56
2023/08/14 08:43:01;;;;;;;0.00;0.00;;;;;;;26.89;100.00;99006.44;5096307;28;20190;-55
2023/08/14 08:45:50;;;;;;;0.00;0.00;;;;;;;27.61;100.00;99016.56;5096406;28;20190;-56
2023/08/14 08:48:41;;;;;;;0.00;0.00;;;;;;;27.25;100.00;99003.38;5096340;28;20191;-56
2023/08/14 08:51:30;;;;;;;0.00;0.00;;;;;;;27.00;100.00;98992.25;5096338;28;20202;-56
2023/08/14 08:54:18;;;;;;;0.00;0.00;;;;;;;26.97;100.00;98998.94;5095208;28;20256;-56
2023/08/14 08:57:05;;;;;;;0.00;0.00;;;;;;;26.73;100.00;99007.66;5096250;28;20214;-56
2023/08/14 08:59:55;;;;;;;0.00;0.00;;;;;;;27.14;100.00;98996.69;5096105;28;20211;-56
2023/08/14 09:02:42;;;;;;;0.00;0.00;;;;;;;27.35;100.00;99004.63;5095976;28;20250;-56
2023/08/14 09:05:34;;;;;;;0.10;0.10;;;;;;;27.42;100.00;99015.53;5096009;28;20195;-56
2023/08/14 09:08:21;;;;;;;0.00;0.00;;;;;;;27.81;100.00;99000.22;5094633;28;20207;-56
2023/08/14 09:11:08;;;;;;;0.00;0.00;;;;;;;27.66;100.00;99003.16;5096276;28;20202;-55
2023/08/14 09:13:55;;;;;;;0.00;0.00;;;;;;;29.12;100.00;98995.19;5095867;28;20229;-56
2023/08/14 09:16:45;;;;;;;0.00;0.00;;;;;;;28.41;100.00;98995.41;5095602;28;20194;-56
2023/08/14 09:19:32;;;;;;;0.00;0.00;;;;;;;28.52;100.00;98992.81;5094941;28;20289;-56
2023/08/14 09:22:19;;;;;;;0.03;0.03;;;;;;;29.08;100.00;98986.63;5094675;28;20281;-55
2023/08/14 09:25:07;;;;;;;0.00;0.00;;;;;;;29.22;100.00;98991.97;5095395;28;20219;-55
2023/08/14 09:27:55;;;;;;;0.00;0.00;;;;;;;29.52;100.00;98986.69;5095914;28;20258;-55
2023/08/14 09:30:43;;;;;;;0.00;0.00;;;;;;;29.15;100.00;98988.47;5095490;28;20191;-55
2023/08/14 09:33:33;;;;;;;0.00;0.00;;;;;;;29.39;100.00;98984.06;5094933;28;20264;-56
2023/08/14 09:36:20;;;;;;;0.00;0.00;;;;;;;29.03;100.00;98989.16;5095406;28;20229;-56
2023/08/14 09:39:07;;;;;;;0.00;0.00;;;;;;;29.44;100.00;98986.97;5094366;28;20198;-55
2023/08/14 09:41:54;;;;;;;0.00;0.00;;;;;;;30.00;100.00;98989.53;5095265;28;20440;-55
2023/08/14 09:44:42;;;;;;;0.00;0.00;;;;;;;30.27;100.00;98989.25;5095088;28;20390;-56
2023/08/14 09:47:31;;;;;;;0.00;0.00;;;;;;;30.07;100.00;98987.59;5095314;28;20237;-56
2023/08/14 09:50:25;;;;;;;0.00;0.00;;;;;;;29.66;100.00;98977.31;5095268;28;20199;-55
2023/08/14 09:53:12;;;;;;;0.00;0.00;;;;;;;29.28;100.00;98982.91;5093989;28;20556;-56
2023/08/14 09:56:00;;;;;;;0.00;0.00;;;;;;;29.24;100.00;98974.34;5095224;28;20190;-56
2023/08/14 09:58:54;;;;;;;0.03;0.03;;;;;;;29.64;100.00;98961.16;5094904;28;20263;-56
2023/08/14 10:01:41;;;;;;;0.00;0.00;;;;;;;29.59;100.00;98962.88;5095071;28;20202;-55
2023/08/14 10:04:30;;;;;;;0.00;0.00;;;;;;;28.86;100.00;98965.38;5094843;28;20701;-55
2023/08/14 10:07:21;;;;;;;0.00;0.00;;;;;;;28.26;100.00;98971.13;5093354;28;20241;-55
2023/08/14 10:10:09;;;;;;;0.00;0.00;;;;;;;27.40;100.00;98979.50;5093779;28;20215;-55
2023/08/14 10:13:01;;;;;;;0.00;0.00;;;;;;;27.55;100.00;98985.56;5094654;28;20682;-55
2023/08/14 10:15:52;;;;;;;0.00;0.00;;;;;;;27.66;100.00;98978.66;5094585;28;20194;-55
2023/08/14 10:18:41;;;;;;;0.00;0.00;;;;;;;27.71;100.00;98975.31;5094726;28;20270;-55
2023/08/14 10:21:32;;;;;;;0.00;0.00;;;;;;;27.42;100.00;98976.59;5094400;28;20206;-55
2023/08/14 10:24:23;;;;;;;0.00;0.00;;;;;;;27.38;100.00;98977.00;5093241;28;20353;-55
2023/08/14 10:27:10;;;;;;;0.10;0.10;;;;;;;27.61;100.00;98984.72;5094456;28;20195;-55
2023/08/14 10:29:58;;;;;;;0.00;0.00;;;;;;;27.31;100.00;98980.75;5094375;28;20284;-55
2023/08/14 10:32:47;;;;;;;0.00;0.00;;;;;;;27.38;100.00;98987.88;5094404;28;20198;-55
2023/08/14 10:35:44;;;;;;;0.08;0.08;;;;;;;27.37;100.00;98991.66;5094066;28;20186;-55
2023/08/14 10:38:43;;;;;;;0.00;0.00;;;;;;;27.57;100.00;98991.63;5092888;28;20203;-55
2023/08/14 10:41:35;;;;;;;0.00;0.00;;;;;;;27.33;100.00;98992.31;5094211;28;20194;-55
2023/08/14 10:44:22;;;;;;;0.03;0.03;;;;;;;27.81;100.00;98984.72;5093009;28;20289;-55
2023/08/14 10:47:12;;;;;;;0.00;0.00;;;;;;;27.67;100.00;98983.91;5094182;28;20264;-55
2023/08/14 10:50:12;;;;;;;0.00;0.00;;;;;;;27.52;100.00;98993.31;5093666;28;20191;-55
2023/08/14 10:52:59;;;;;;;0.00;0.00;;;;;;;27.77;100.00;98988.91;5092877;28;20195;-55
2023/08/14 10:55:46;;;;;;;0.00;0.00;;;;;;;27.72;100.00;98993.31;5094202;28;20670;-55
2023/08/14 10:58:47;;;;;;;0.00;0.00;;;;;;;27.42;100.00;98999.19;5093783;28;20207;-55
2023/08/14 11:01:36;;;;;;;0.10;0.10;;;;;;;27.63;100.00;99012.56;5093589;28;20194;-56
2023/08/14 11:04:23;;;;;;;0.00;0.00;;;;;;;27.31;100.00;99005.25;5093855;28;20338;-55
2023/08/14 11:07:11;;;;;;;0.10;0.10;;;;;;;27.45;100.00;99011.53;5092315;28;20284;-55
2023/08/14 11:09:59;;;;;;;0.00;0.00;;;;;;;28.12;100.00;99003.03;5093563;28;20249;-56
2023/08/14 11:12:51;;;;;;;0.00;0.00;;;;;;;28.09;100.00;99000.75;5093603;28;20195;-55
2023/08/14 11:15:40;;;;;;;0.00;0.00;;;;;;;28.12;100.00;98992.16;5093416;28;20179;-56
2023/08/14 11:18:28;;;;;;;0.00;0.00;;;;;;;28.25;100.00;98993.97;5093443;28;20187;-56
2023/08/14 11:21:15;;;;;;;0.00;0.00;;;;;;;28.83;100.00;98993.91;5093476;28;20207;-56
2023/08/14 11:24:18;;;;;;;0.00;0.00;;;;;;;29.16;100.00;98985.53;5092117;28;20202;-55
2023/08/14 11:27:05;;;;;;;0.00;0.00;;;;;;;28.71;100.00;98990.22;5093263;28;20198;-55
2023/08/14 11:29:51;;;;;;;0.00;0.00;;;;;;;28.47;100.00;98995.38;5093325;28;20213;-55
2023/08/14 11:32:44;;;;;;;0.00;0.00;;;;;;;29.04;100.00;99007.19;5093196;28;20194;-55
2023/08/14 11:35:32;;;;;;;0.00;0.00;;;;;;;29.82;100.00;99000.44;5093182;28;20267;-56
2023/08/14 11:38:19;;;;;;;0.00;0.00;;;;;;;29.73;100.00;99010.03;5091950;28;20195;-55
2023/08/14 11:41:07;;;;;;;0.00;0.00;;;;;;;29.60;100.00;99008.22;5093152;28;20209;-55
2023/08/14 11:43:55;;;;;;;0.05;0.05;;;;;;;29.90;100.00;99011.06;5092853;28;20199;-56
2023/08/14 11:46:42;;;;;;;0.00;0.00;;;;;;;30.61;100.00;99006.88;5093010;28;20201;-56
2023/08/14 11:49:32;;;;;;;0.00;0.00;;;;;;;30.36;100.00;98996.91;5092346;28;20197;-56
2023/08/14 11:52:20;;;;;;;0.00;0.00;;;;;;;30.74;100.00;99006.72;5091283;28;20227;-56
2023/08/14 11:55:10;;;;;;;0.00;0.00;;;;;;;31.11;100.00;99007.44;5092583;28;20194;-56
2023/08/14 11:58:00;;;;;;;0.00;0.00;;;;;;;31.59;97.67;99006.44;5092797;28;20266;-56
2023/08/14 12:00:50;;;;;;;0.00;0.00;;;;;;;31.42;98.90;99006.31;5092667;28;20197;-56
2023/08/14 12:03:36;;;;;;;0.00;0.00;;;;;;;32.26;93.25;99001.38;5092669;28;20309;-56
2023/08/14 12:06:25;;;;;;;0.00;0.00;;;;;;;32.59;90.22;98994.38;5092432;28;20217;-56
2023/08/14 12:09:13;;;;;;;0.00;0.00;;;;;;;32.75;86.52;98997.16;5091638;28;20272;-56
2023/08/14 12:11:59;;;;;;;0.00;0.00;;;;;;;32.75;85.09;98999.91;5092506;28;20219;-56
2023/08/14 12:14:48;;;;;;;0.00;0.00;;;;;;;32.53;83.98;99006.34;5092628;28;20190;-56
2023/08/14 12:17:37;;;;;;;0.00;0.00;;;;;;;33.25;79.75;98998.31;5092719;28;20292;-56
2023/08/14 12:20:24;;;;;;;0.00;0.00;;;;;;;34.35;74.92;99000.22;5092454;28;20207;-56
2023/08/14 12:23:13;;;;;;;0.00;0.00;;;;;;;34.19;74.81;98992.06;5091258;28;20199;-56
2023/08/14 12:26:00;;;;;;;0.00;0.00;;;;;;;34.24;70.53;98973.69;5092358;28;20218;-56
2023/08/14 12:28:47;;;;;;;0.00;0.00;;;;;;;33.81;75.78;98960.75;5092478;28;20226;-56
2023/08/14 12:31:33;;;;;;;0.00;0.00;;;;;;;32.88;83.37;98965.84;5092540;28;20208;-56
2023/08/14 12:34:21;;;;;;;0.00;0.00;;;;;;;33.43;79.45;98969.81;5092611;28;20195;-56
2023/08/14 12:37:10;;;;;;;0.00;0.00;;;;;;;32.11;87.93;98965.41;5090772;28;20222;-56
2023/08/14 12:39:59;;;;;;;0.00;0.00;;;;;;;31.94;94.18;98959.84;5092357;28;20218;-56
2023/08/14 12:42:45;;;;;;;0.00;0.00;;;;;;;33.00;86.08;98958.38;5092314;28;20195;-56
2023/08/14 12:45:32;;;;;;;0.00;0.00;;;;;;;32.04;91.12;98960.09;5092172;28;20710;-56
2023/08/14 12:48:19;;;;;;;0.00;0.00;;;;;;;33.19;84.17;98956.22;5092434;28;20264;-56
2023/08/14 12:51:06;;;;;;;0.00;0.00;;;;;;;34.93;74.04;98956.59;5092343;28;20194;-56
2023/08/14 12:53:58;;;;;;;0.00;0.00;;;;;;;35.02;68.04;98937.66;5091111;28;20188;-56
2023/08/14 12:56:46;;;;;;;0.00;0.00;;;;;;;34.87;72.61;98939.16;5092366;28;20194;-56
2023/08/14 12:59:33;;;;;;;0.00;0.00;;;;;;;33.76;75.32;98930.44;5092369;28;20258;-56
2023/08/14 13:02:20;;;;;;;0.00;0.00;;;;;;;32.75;79.24;98938.72;5092266;28;20198;-56